map of LTK home
LTK - Airport
Location
City:  Latakia, Al Ladhiqiyah (Latakia), Syrian Arab Republic (Syria)
Name:Bassel al Assad International Airport
ICAO:OSLK
IATA:LTK

Details
Type:Airport (Aerodrome, Airfield)
Use:Public/Civil, Military, International (customs port of entry)
Latitude:3524'04"N (35.401094)
Longitude:3556'55"E (35.948681)
Datum:WGS 1984
Elevation:157 ft (48 m)
Variation:5.18E (WMM2015 magnetic declination)
0.08 annual change
Runways:1
Longest:9175 × 148 ft (2797 × 45 m), paved

Time
Time Zone:UTC+2 (DST+3)
Local Time:

Weather
METAR:OSLK 191900Z 22004KT 9999 FEW026 SCT030 24/20 Q1011
TAF:OSLK 190400Z 1906/2006 24013KT 8000 RA FEW025CB SCT030
BECMG 1918/1920 12008KT 9999 SCT030

Related Locations
Nearby:
Farthest:RVV: 11609 mi / 18682 km
Raivavae, Tubuai Islands, Austral Islands, PF

Find:

   beyond  
but within

Other Information
Maps:
NOTAMs:
Links:
Sources:

  
  • flag of Syrian Arab Republic (Syria)
  

Sectional Chart

Flight Planning
at skyvector.com

Satellite Image

Google Maps Satellite view

 

Copyright © 2004-2018 Karl L. Swartz. All rights reserved.
The Great Circle Mapper name and logo are trademarks of the Great Circle Mapper.
All other trademarks mentioned herein belong to their respective owners.
Please see credits for attibutions and further copyright information.

  Follow gcmap on Facebook Follow gcmap on Twitter Follow gcmap on Google+ GCmap on LinkedIn

hCard Microformat

Geo Microformat